createdAt,value
2019-02-27T00:00:49.234Z,11.22
2019-02-27T00:02:42.383Z,8.45
2019-02-27T00:04:35.656Z,6.83
2019-02-27T00:06:28.908Z,9.08
2019-02-27T00:08:21.423Z,9.35
2019-02-27T00:10:14.149Z,7.25
2019-02-27T00:12:06.683Z,11.68
2019-02-27T00:13:59.698Z,10.98
2019-02-27T00:15:52.445Z,12.33
2019-02-27T00:17:45.512Z,7.80
2019-02-27T00:21:30.267Z,6.83
2019-02-27T00:23:24.612Z,6.58
2019-02-27T00:25:18.739Z,7.75
2019-02-27T00:27:14.608Z,8.18
2019-02-27T00:29:06.095Z,8.90
2019-02-27T00:31:00.086Z,8.90
2019-02-27T00:32:53.259Z,6.85
2019-02-27T00:34:46.277Z,9.33
2019-02-27T00:38:31.348Z,9.95
2019-02-27T00:40:24.640Z,9.80
2019-02-27T00:42:20.599Z,7.20
2019-02-27T00:44:12.228Z,6.80
2019-02-27T00:46:05.568Z,8.98
2019-02-27T00:47:58.384Z,9.98
2019-02-27T00:49:51.412Z,9.93
2019-02-27T00:51:45.426Z,7.90
2019-02-27T00:53:38.401Z,11.70
2019-02-27T00:55:30.940Z,5.70
2019-02-27T00:57:23.737Z,13.20
2019-02-27T00:59:16.827Z,7.22
2019-02-27T01:20:55.854Z,7.37
2019-02-27T01:22:48.768Z,6.83
2019-02-27T01:26:34.260Z,10.53
2019-02-27T01:28:27.607Z,9.70
2019-02-27T01:30:23.938Z,11.88
2019-02-27T01:32:16.478Z,7.03
2019-02-27T01:34:11.336Z,10.93
2019-02-27T01:36:04.710Z,10.72
2019-02-27T01:37:57.799Z,8.93
2019-02-27T01:39:50.918Z,7.42
2019-02-27T01:41:44.504Z,5.92
2019-02-27T01:45:31.225Z,8.08
2019-02-27T01:47:24.040Z,8.88
2019-02-27T01:49:17.135Z,6.28
2019-02-27T01:53:07.118Z,6.60
2019-02-27T01:54:58.271Z,4.70
2019-02-27T01:56:51.586Z,6.35
2019-02-27T01:58:44.437Z,6.08
2019-02-27T02:00:38.327Z,5.85
2019-02-27T02:02:31.481Z,9.03
2019-02-27T02:04:24.643Z,8.15
2019-02-27T02:08:13.632Z,4.40
2019-02-27T02:10:08.413Z,9.53
2019-02-27T02:12:08.791Z,5.72
2019-02-27T02:14:29.448Z,5.30
2019-02-27T02:16:37.233Z,6.53
2019-02-27T02:18:35.997Z,8.00
2019-02-27T02:20:40.590Z,7.53
2019-02-27T02:22:41.288Z,6.22
2019-02-27T02:24:49.406Z,5.37
2019-02-27T02:26:51.654Z,10.15
2019-02-27T02:29:08.796Z,9.70
2019-02-27T02:31:13.381Z,10.95
2019-02-27T02:33:15.689Z,7.70
2019-02-27T02:35:32.403Z,7.25
2019-02-27T02:37:33.686Z,5.53
2019-02-27T02:39:36.850Z,5.72
2019-02-27T02:41:53.977Z,4.30
2019-02-27T02:44:06.505Z,5.10
2019-02-27T02:46:08.882Z,7.08
2019-02-27T02:48:06.039Z,5.30
2019-02-27T02:50:02.356Z,4.42
2019-02-27T02:52:07.600Z,5.08
2019-02-27T02:54:28.965Z,7.55
2019-02-27T02:56:34.065Z,6.03
2019-02-27T02:58:48.894Z,5.25
2019-02-27T03:00:48.244Z,4.87
2019-02-27T03:02:57.543Z,6.42
2019-02-27T03:05:23.627Z,5.03
2019-02-27T03:07:24.744Z,6.78
2019-02-27T03:09:30.364Z,5.37
2019-02-27T03:11:42.618Z,5.15
2019-02-27T03:13:47.563Z,4.37
2019-02-27T03:15:52.401Z,4.37
2019-02-27T03:18:11.095Z,4.78
2019-02-27T03:20:19.394Z,9.38
2019-02-27T03:22:21.498Z,3.45
2019-02-27T03:24:40.144Z,6.72
2019-02-27T03:26:57.306Z,3.77
2019-02-27T03:29:17.512Z,6.30
2019-02-27T03:31:36.161Z,5.10
2019-02-27T03:34:07.837Z,8.98
2019-02-27T03:36:15.151Z,5.97
2019-02-27T03:38:23.750Z,6.25
2019-02-27T03:40:28.099Z,4.78
2019-02-27T03:42:46.964Z,5.28
2019-02-27T03:44:49.298Z,6.05
2019-02-27T03:46:57.430Z,6.53
2019-02-27T03:49:11.891Z,5.33
2019-02-27T03:53:16.422Z,4.53
2019-02-27T03:55:12.524Z,7.78
2019-02-27T03:57:20.206Z,9.28
2019-02-27T03:59:47.628Z,6.20
2019-02-27T04:02:08.219Z,5.90
2019-02-27T04:04:13.269Z,6.35
2019-02-27T04:06:29.008Z,6.22
2019-02-27T04:08:34.201Z,4.87
2019-02-27T04:10:30.827Z,7.15
2019-02-27T04:12:21.543Z,5.33
2019-02-27T04:14:31.699Z,6.28
2019-02-27T04:16:28.842Z,6.15
2019-02-27T04:18:19.027Z,10.65
2019-02-27T04:20:15.545Z,4.05
2019-02-27T04:22:06.855Z,7.97
2019-02-27T04:23:59.703Z,4.22
2019-02-27T04:25:52.456Z,6.08
2019-02-27T04:27:45.275Z,4.37
2019-02-27T04:29:41.066Z,4.53
2019-02-27T04:31:32.721Z,4.95
2019-02-27T04:33:25.535Z,8.95
2019-02-27T04:35:18.415Z,6.92
2019-02-27T04:37:11.551Z,6.47
2019-02-27T04:39:05.363Z,4.42
2019-02-27T04:40:59.419Z,5.70
2019-02-27T04:42:52.188Z,4.33
2019-02-27T04:44:45.129Z,4.70
2019-02-27T04:46:38.043Z,8.45
2019-02-27T04:48:30.625Z,8.15
2019-02-27T04:50:23.165Z,8.90
2019-02-27T04:52:15.990Z,6.03
2019-02-27T04:54:09.272Z,3.77
2019-02-27T04:56:02.290Z,4.65
2019-02-27T04:57:55.178Z,6.17
2019-02-27T04:59:49.734Z,6.22
2019-02-27T05:01:42.287Z,6.42
2019-02-27T05:03:35.068Z,10.40
2019-02-27T05:07:20.903Z,5.20
2019-02-27T05:09:13.968Z,7.00
2019-02-27T05:11:06.983Z,3.33
2019-02-27T05:13:00.318Z,4.25
2019-02-27T05:14:53.307Z,4.83
2019-02-27T05:18:40.469Z,7.37
2019-02-27T05:20:33.393Z,11.08
2019-02-27T05:22:26.797Z,6.97
2019-02-27T05:24:20.844Z,4.00
2019-02-27T05:26:13.449Z,5.33
2019-02-27T05:28:06.200Z,5.83
2019-02-27T05:30:00.100Z,5.95
2019-02-27T05:31:54.802Z,6.40
2019-02-27T05:33:47.623Z,7.33
2019-02-27T05:35:40.913Z,7.12
2019-02-27T05:37:36.118Z,7.30
2019-02-27T05:39:28.186Z,8.58
2019-02-27T05:41:21.176Z,5.80
2019-02-27T05:43:14.108Z,4.90
2019-02-27T05:45:10.000Z,7.95
2019-02-27T05:47:02.721Z,5.67
2019-02-27T05:48:56.056Z,7.47
2019-02-27T05:50:49.240Z,8.20
2019-02-27T05:52:42.374Z,7.33
2019-02-27T05:54:35.147Z,7.33
2019-02-27T05:56:27.948Z,4.28
2019-02-27T05:58:22.896Z,5.37
2019-02-27T06:00:18.873Z,7.25
2019-02-27T06:02:13.239Z,5.12
2019-02-27T06:04:06.047Z,11.30
2019-02-27T06:05:58.665Z,6.70
2019-02-27T06:09:44.538Z,8.23
2019-02-27T06:11:37.666Z,9.63
2019-02-27T06:13:30.462Z,7.55
2019-02-27T06:15:26.023Z,11.30
2019-02-27T06:17:17.756Z,6.83
2019-02-27T06:19:10.685Z,8.58
2019-02-27T06:21:03.675Z,14.87
2019-02-27T06:22:57.540Z,8.10
2019-02-27T06:24:50.404Z,9.03
2019-02-27T06:26:43.385Z,7.67
2019-02-27T06:28:36.586Z,9.95
2019-02-27T06:30:30.614Z,11.03
2019-02-27T06:32:24.188Z,9.93
2019-02-27T06:36:09.749Z,12.18
2019-02-27T06:38:02.693Z,10.28
2019-02-27T06:39:55.577Z,5.70
2019-02-27T06:41:49.737Z,13.50
2019-02-27T06:43:43.250Z,10.60
2019-02-27T06:45:36.265Z,12.37
2019-02-27T06:47:29.151Z,7.95
2019-02-27T06:51:14.424Z,9.88
2019-02-27T06:53:07.236Z,6.55
2019-02-27T06:56:54.076Z,12.05
2019-02-27T06:58:29.887Z,6.05
2019-02-27T07:00:19.164Z,10.45
2019-02-27T07:01:54.466Z,10.03
2019-02-27T07:03:32.781Z,7.30
2019-02-27T07:05:07.952Z,14.47
2019-02-27T07:06:42.998Z,10.35
2019-02-27T07:08:18.131Z,14.47
2019-02-27T07:09:55.116Z,21.25
2019-02-27T07:11:30.184Z,18.25
2019-02-27T07:13:05.240Z,15.78
2019-02-27T07:14:40.605Z,10.25
2019-02-27T07:16:33.292Z,17.85
2019-02-27T07:18:26.592Z,10.18
2019-02-27T07:20:23.884Z,9.20
2019-02-27T07:22:14.580Z,9.73
2019-02-27T07:24:07.834Z,8.85
2019-02-27T07:25:42.907Z,9.50
2019-02-27T07:27:18.706Z,14.70
2019-02-27T07:28:53.632Z,13.45
2019-02-27T07:30:28.753Z,21.62
2019-02-27T07:32:03.806Z,13.13
2019-02-27T07:33:40.550Z,10.23
2019-02-27T07:35:16.874Z,5.60
2019-02-27T07:36:51.904Z,8.73
2019-02-27T07:38:27.263Z,11.75
2019-02-27T07:40:02.760Z,10.10
2019-02-27T07:41:56.692Z,6.67
2019-02-27T07:45:42.683Z,12.88
2019-02-27T07:47:56.084Z,12.37
2019-02-27T07:49:49.210Z,11.80
2019-02-27T07:51:42.112Z,13.93
2019-02-27T07:53:35.073Z,15.95
2019-02-27T07:57:21.345Z,14.80
2019-02-27T07:59:13.971Z,12.35
2019-02-27T08:01:06.596Z,19.35
2019-02-27T08:02:59.335Z,14.30
2019-02-27T08:04:54.634Z,7.72
2019-02-27T08:06:46.728Z,15.83
2019-02-27T08:08:39.778Z,19.15
2019-02-27T08:12:26.668Z,12.10
2019-02-27T08:16:12.050Z,12.60
2019-02-27T08:18:05.025Z,18.92
2019-02-27T08:19:58.384Z,12.73
2019-02-27T08:21:51.323Z,15.95
2019-02-27T08:25:38.215Z,15.40
2019-02-27T08:27:31.109Z,13.15
2019-02-27T08:29:33.052Z,9.25
2019-02-27T08:31:28.155Z,10.05
2019-02-27T08:33:21.075Z,8.45
2019-02-27T08:35:16.463Z,10.70
2019-02-27T08:37:09.440Z,10.75
2019-02-27T08:39:02.287Z,11.60
2019-02-27T08:40:58.293Z,10.98
2019-02-27T08:42:51.695Z,19.40
2019-02-27T08:44:45.925Z,12.88
2019-02-27T08:46:39.522Z,12.78
2019-02-27T08:48:32.160Z,18.05
2019-02-27T08:50:25.102Z,12.98
2019-02-27T08:52:18.292Z,14.75
2019-02-27T08:56:03.738Z,15.58
2019-02-27T08:57:57.129Z,13.35
2019-02-27T08:59:59.853Z,11.15
2019-02-27T09:03:47.105Z,21.97
2019-02-27T09:05:39.939Z,13.08
2019-02-27T09:07:33.924Z,13.80
2019-02-27T09:09:27.523Z,19.52
2019-02-27T09:11:20.213Z,19.15
2019-02-27T09:13:12.931Z,8.13
2019-02-27T09:15:07.827Z,22.30
2019-02-27T09:17:00.613Z,17.57
2019-02-27T09:18:53.415Z,12.65
2019-02-27T09:20:47.951Z,13.62
2019-02-27T09:22:40.926Z,15.25
2019-02-27T09:26:26.476Z,18.60
2019-02-27T09:28:19.411Z,15.70
2019-02-27T09:30:15.156Z,16.32
2019-02-27T09:32:09.269Z,14.85
2019-02-27T09:34:02.996Z,12.98
2019-02-27T09:35:56.401Z,13.93
2019-02-27T09:37:51.200Z,18.98
2019-02-27T09:39:43.631Z,19.98
2019-02-27T09:41:36.489Z,16.32
2019-02-27T09:43:29.225Z,15.58
2019-02-27T09:45:27.951Z,14.25
2019-02-27T09:47:23.197Z,13.90
2019-02-27T09:49:15.297Z,18.62
2019-02-27T09:51:09.797Z,16.95
2019-02-27T09:53:03.655Z,15.55
2019-02-27T09:54:57.572Z,20.08
2019-02-27T09:56:50.393Z,19.12
2019-02-27T09:58:45.637Z,12.13
2019-02-27T10:00:49.900Z,22.07
2019-02-27T10:02:46.146Z,17.50
2019-02-27T10:04:37.503Z,19.92
2019-02-27T10:06:30.288Z,22.25
2019-02-27T10:08:25.269Z,18.23
2019-02-27T10:10:17.598Z,15.25
2019-02-27T10:12:10.744Z,24.52
2019-02-27T10:14:03.771Z,17.95
2019-02-27T10:16:00.564Z,16.02
2019-02-27T10:17:51.491Z,15.08
2019-02-27T10:19:44.481Z,13.45
2019-02-27T10:23:31.163Z,15.80
2019-02-27T10:25:24.627Z,18.37
2019-02-27T10:27:17.411Z,13.98
2019-02-27T10:29:10.976Z,17.80
2019-02-27T10:31:05.055Z,14.83
2019-02-27T10:32:58.442Z,13.53
2019-02-27T10:34:53.672Z,13.95
2019-02-27T10:36:47.604Z,15.38
2019-02-27T10:38:40.652Z,14.90
2019-02-27T10:40:33.552Z,15.23
2019-02-27T10:42:26.486Z,18.85
2019-02-27T10:44:19.428Z,15.03
2019-02-27T10:46:12.939Z,14.68
2019-02-27T10:48:06.207Z,14.98
2019-02-27T10:50:01.597Z,14.63
2019-02-27T10:51:54.900Z,12.68
2019-02-27T10:55:39.789Z,13.40
2019-02-27T10:57:38.226Z,13.13
2019-02-27T10:59:27.016Z,12.37
2019-02-27T11:01:19.935Z,14.60
2019-02-27T11:03:13.024Z,16.77
2019-02-27T11:05:07.378Z,12.65
2019-02-27T11:07:00.589Z,12.33
2019-02-27T11:08:53.550Z,14.78
2019-02-27T11:10:46.422Z,13.95
2019-02-27T11:12:39.278Z,17.67
2019-02-27T11:14:33.825Z,14.50
2019-02-27T11:16:27.981Z,11.53
2019-02-27T11:18:21.454Z,12.18
2019-02-27T11:20:14.498Z,13.43
2019-02-27T11:22:07.448Z,10.72
2019-02-27T11:24:00.392Z,16.00
2019-02-27T11:25:56.858Z,13.45
2019-02-27T11:27:48.298Z,20.97
2019-02-27T11:29:41.334Z,19.67
2019-02-27T11:31:34.630Z,13.55
2019-02-27T11:33:32.686Z,14.18
2019-02-27T11:35:25.152Z,14.03
2019-02-27T11:37:17.250Z,23.85
2019-02-27T11:39:11.305Z,13.00
2019-02-27T11:41:04.965Z,11.85
2019-02-27T11:42:57.985Z,12.80
2019-02-27T11:44:52.152Z,13.90
2019-02-27T11:46:45.085Z,22.55
2019-02-27T11:48:37.863Z,13.95
2019-02-27T11:50:31.080Z,14.75
2019-02-27T11:52:27.665Z,15.45
2019-02-27T11:54:18.606Z,16.23
2019-02-27T11:56:11.218Z,16.75
2019-02-27T11:58:05.333Z,20.35
2019-02-27T11:59:58.633Z,11.30
2019-02-27T12:01:55.386Z,15.88
2019-02-27T12:03:46.832Z,17.15
2019-02-27T12:05:40.327Z,16.57
2019-02-27T12:09:25.065Z,15.30
2019-02-27T12:13:10.449Z,14.55
2019-02-27T12:15:03.829Z,13.25
2019-02-27T12:16:56.779Z,18.37
2019-02-27T12:18:49.661Z,13.05
2019-02-27T12:20:42.179Z,17.15
2019-02-27T12:22:35.986Z,14.93
2019-02-27T12:24:28.931Z,14.07
2019-02-27T12:26:21.779Z,16.87
2019-02-27T12:28:18.100Z,14.47
2019-02-27T12:30:18.763Z,17.55
2019-02-27T12:32:12.139Z,13.13
2019-02-27T12:34:05.140Z,13.60
2019-02-27T12:35:57.827Z,16.65
2019-02-27T12:37:50.735Z,19.00
2019-02-27T12:39:43.699Z,14.15
2019-02-27T12:41:36.805Z,14.20
2019-02-27T12:43:29.384Z,21.52
2019-02-27T12:45:25.840Z,17.85
2019-02-27T12:47:19.011Z,15.18
2019-02-27T12:49:11.926Z,9.85
2019-02-27T12:51:04.736Z,14.63
2019-02-27T12:52:57.557Z,13.13
2019-02-27T12:54:50.389Z,13.32
2019-02-27T12:56:44.524Z,15.03
2019-02-27T12:58:37.945Z,12.78
2019-02-27T13:00:32.422Z,13.80
2019-02-27T13:02:35.290Z,11.80
2019-02-27T13:04:20.091Z,9.40
2019-02-27T13:06:13.610Z,9.83
2019-02-27T13:08:06.467Z,10.15
2019-02-27T13:09:59.450Z,12.33
2019-02-27T13:11:52.513Z,10.50
2019-02-27T13:13:45.149Z,6.75
2019-02-27T13:19:24.376Z,8.08
2019-02-27T13:21:20.581Z,16.87
2019-02-27T13:23:12.070Z,20.23
2019-02-27T13:25:05.979Z,12.68
2019-02-27T13:26:58.908Z,8.25
2019-02-27T13:28:53.306Z,9.03
2019-02-27T13:32:39.050Z,9.53
2019-02-27T13:34:32.310Z,9.00
2019-02-27T13:36:25.603Z,10.28
2019-02-27T13:40:27.973Z,9.38
2019-02-27T13:42:20.766Z,7.95
2019-02-27T13:44:13.628Z,8.43
2019-02-27T13:46:06.399Z,10.70
2019-02-27T13:48:04.914Z,10.08
2019-02-27T13:49:53.799Z,10.85
2019-02-27T13:51:46.656Z,11.12
2019-02-27T13:55:32.122Z,9.65
2019-02-27T13:57:25.716Z,11.78
2019-02-27T13:59:19.640Z,11.83
2019-02-27T14:01:12.977Z,12.60
2019-02-27T14:03:06.324Z,8.43
2019-02-27T14:05:00.648Z,17.40
2019-02-27T14:06:55.315Z,12.37
2019-02-27T14:08:48.270Z,11.88
2019-02-27T14:10:40.919Z,14.20
2019-02-27T14:14:27.497Z,12.63
2019-02-27T14:16:20.388Z,15.20
2019-02-27T14:18:13.365Z,16.15
2019-02-27T14:20:10.599Z,16.25
2019-02-27T14:22:07.203Z,11.00
2019-02-27T14:23:59.145Z,10.18
2019-02-27T14:25:51.932Z,12.05
2019-02-27T14:27:47.257Z,11.80
2019-02-27T14:29:41.361Z,18.07
2019-02-27T14:31:34.471Z,12.40
2019-02-27T14:33:27.116Z,14.15
2019-02-27T14:35:19.978Z,12.45
2019-02-27T14:37:16.212Z,15.00
2019-02-27T14:39:09.438Z,10.32
2019-02-27T14:41:03.494Z,11.03
2019-02-27T14:42:56.650Z,12.15
2019-02-27T14:44:49.646Z,13.98
2019-02-27T14:46:45.056Z,9.90
2019-02-27T14:48:37.868Z,10.28
2019-02-27T14:54:16.421Z,7.35
2019-02-27T14:56:12.240Z,8.60
2019-02-27T14:58:05.141Z,9.53
2019-02-27T14:59:57.921Z,7.47
2019-02-27T15:01:50.790Z,7.42
2019-02-27T15:03:44.966Z,9.83
2019-02-27T15:05:43.181Z,12.15
2019-02-27T15:07:34.643Z,11.48
2019-02-27T15:09:27.502Z,14.33
2019-02-27T15:11:20.467Z,6.85
2019-02-27T15:13:13.069Z,10.30
2019-02-27T15:15:10.341Z,9.13
2019-02-27T15:17:03.620Z,6.42
2019-02-27T15:18:56.676Z,9.13
2019-02-27T15:20:52.165Z,7.70
2019-02-27T15:22:45.176Z,9.73
2019-02-27T15:24:38.027Z,10.10
2019-02-27T15:28:22.935Z,8.23
2019-02-27T15:30:17.776Z,11.60
2019-02-27T15:32:10.897Z,6.62
2019-02-27T15:34:03.740Z,11.70
2019-02-27T15:35:56.741Z,9.70
2019-02-27T15:37:51.295Z,6.15
2019-02-27T15:39:44.447Z,12.85
2019-02-27T15:41:38.177Z,8.18
2019-02-27T15:43:31.097Z,11.33
2019-02-27T15:45:25.259Z,10.00
2019-02-27T15:47:19.079Z,9.15
2019-02-27T15:49:12.841Z,10.25
2019-02-27T15:51:06.379Z,11.05
2019-02-27T15:52:59.413Z,6.65
2019-02-27T15:56:45.516Z,10.93
2019-02-27T15:58:38.639Z,8.55
2019-02-27T16:00:31.368Z,10.90
2019-02-27T16:02:24.530Z,7.62
2019-02-27T16:04:20.962Z,13.72
2019-02-27T16:06:11.771Z,8.35
2019-02-27T16:09:57.067Z,6.30
2019-02-27T16:13:43.756Z,9.93
2019-02-27T16:15:36.651Z,8.73
2019-02-27T16:17:31.359Z,9.98
2019-02-27T16:19:24.374Z,11.65
2019-02-27T16:21:17.102Z,7.90
2019-02-27T16:23:10.190Z,9.15
2019-02-27T16:25:03.371Z,9.75
2019-02-27T16:28:50.155Z,9.10
2019-02-27T16:30:43.526Z,9.75
2019-02-27T16:34:32.675Z,7.25
2019-02-27T16:36:23.828Z,7.10
2019-02-27T16:38:16.785Z,18.12
2019-02-27T16:40:17.981Z,9.53
2019-02-27T16:42:10.091Z,7.97
2019-02-27T16:44:03.276Z,11.85
2019-02-27T16:45:56.801Z,13.95
2019-02-27T16:47:49.900Z,10.50
2019-02-27T16:49:43.265Z,11.28
2019-02-27T16:53:28.751Z,15.90
2019-02-27T16:55:23.709Z,7.45
2019-02-27T16:57:21.144Z,9.40
2019-02-27T16:59:12.253Z,6.70
2019-02-27T17:01:05.490Z,6.80
2019-02-27T17:02:58.379Z,11.50
2019-02-27T17:04:51.774Z,10.43
2019-02-27T17:06:44.261Z,7.33
2019-02-27T17:08:36.899Z,6.78
2019-02-27T17:10:32.180Z,10.72
2019-02-27T17:12:25.682Z,8.35
2019-02-27T17:16:11.531Z,9.20
2019-02-27T17:18:04.602Z,11.05
2019-02-27T17:21:50.098Z,9.58
2019-02-27T17:25:37.005Z,8.15
2019-02-27T17:27:30.089Z,11.43
2019-02-27T17:29:26.408Z,10.20
2019-02-27T17:31:17.600Z,14.28
2019-02-27T17:33:10.442Z,9.23
2019-02-27T17:35:04.372Z,6.70
2019-02-27T17:36:58.894Z,8.68
2019-02-27T17:38:51.727Z,10.45
2019-02-27T17:40:45.318Z,16.23
2019-02-27T17:42:38.165Z,8.10
2019-02-27T17:44:31.574Z,16.70
2019-02-27T17:46:24.656Z,13.60
2019-02-27T17:48:17.467Z,8.30
2019-02-27T17:50:12.137Z,10.32
2019-02-27T17:52:11.117Z,12.00
2019-02-27T17:53:59.858Z,9.68
2019-02-27T17:57:46.352Z,10.32
2019-02-27T17:59:42.446Z,11.97
2019-02-27T18:01:34.032Z,14.85
2019-02-27T18:03:26.828Z,8.18
2019-02-27T18:05:22.401Z,8.58
2019-02-27T18:07:14.440Z,14.40
2019-02-27T18:12:54.025Z,11.55
2019-02-27T18:14:47.002Z,12.15
2019-02-27T18:16:40.098Z,11.88
2019-02-27T18:18:33.124Z,9.35
2019-02-27T18:20:25.824Z,6.08
2019-02-27T18:22:19.155Z,11.33
2019-02-27T18:24:12.002Z,12.98
2019-02-27T18:26:05.215Z,16.12
2019-02-27T18:27:59.732Z,16.70
2019-02-27T18:29:52.675Z,26.50
2019-02-27T18:31:45.492Z,17.87
2019-02-27T18:35:32.143Z,13.45
2019-02-27T18:37:25.359Z,19.12
2019-02-27T18:39:18.125Z,21.48
2019-02-27T18:41:14.495Z,14.13
2019-02-27T18:43:05.636Z,24.80
2019-02-27T18:44:58.339Z,22.80
2019-02-27T18:46:50.930Z,15.50
2019-02-27T18:48:44.430Z,17.32
2019-02-27T18:50:38.564Z,17.45
2019-02-27T18:52:31.532Z,23.90
2019-02-27T18:54:25.237Z,23.45
2019-02-27T18:56:18.649Z,13.53
2019-02-27T19:00:12.532Z,15.48
2019-02-27T19:02:07.395Z,28.80
2019-02-27T19:04:01.213Z,14.03
2019-02-27T19:05:55.713Z,21.75
2019-02-27T19:07:53.760Z,21.33
2019-02-27T19:09:43.478Z,28.20
2019-02-27T19:11:36.512Z,28.90
2019-02-27T19:13:31.749Z,27.77
2019-02-27T19:15:26.104Z,24.10
2019-02-27T19:17:19.228Z,20.45
2019-02-27T19:19:13.828Z,20.95
2019-02-27T19:21:07.513Z,19.82
2019-02-27T19:23:01.071Z,26.60
2019-02-27T19:24:54.333Z,19.85
2019-02-27T19:26:49.442Z,26.40
2019-02-27T19:28:42.936Z,25.50
2019-02-27T19:32:29.349Z,18.48
2019-02-27T19:36:19.265Z,36.88
2019-02-27T19:38:12.668Z,36.28
2019-02-27T19:40:08.431Z,32.05
2019-02-27T19:41:52.196Z,29.23
2019-02-27T19:43:45.961Z,27.93
2019-02-27T19:45:42.148Z,34.75
2019-02-27T19:47:36.239Z,35.90
2019-02-27T19:49:30.609Z,36.30
2019-02-27T19:51:25.023Z,31.12
2019-02-27T19:53:19.450Z,25.85
2019-02-27T19:55:14.007Z,27.22
2019-02-27T19:57:08.614Z,27.50
2019-02-27T19:59:03.705Z,30.23
2019-02-27T20:00:58.060Z,21.85
2019-02-27T20:02:57.869Z,37.33
2019-02-27T20:04:48.386Z,26.55
2019-02-27T20:06:42.984Z,24.57
2019-02-27T20:08:37.430Z,29.85
2019-02-27T20:10:33.244Z,19.87
2019-02-27T20:12:28.731Z,29.30
2019-02-27T20:14:23.248Z,23.62
2019-02-27T20:16:20.469Z,28.12
2019-02-27T20:18:13.319Z,28.12
2019-02-27T20:20:09.514Z,26.17
2019-02-27T20:22:04.295Z,28.05
2019-02-27T20:24:01.411Z,36.75
2019-02-27T20:25:56.241Z,32.85
2019-02-27T20:27:50.638Z,26.62
2019-02-27T20:29:45.080Z,19.77
2019-02-27T20:31:39.718Z,23.50
2019-02-27T20:33:34.254Z,18.55
2019-02-27T20:35:29.661Z,19.32
2019-02-27T20:37:24.119Z,23.32
2019-02-27T20:39:23.236Z,23.18
2019-02-27T20:41:18.589Z,17.73
2019-02-27T20:43:12.959Z,17.82
2019-02-27T20:45:13.164Z,16.35
2019-02-27T20:47:07.820Z,21.30
2019-02-27T20:49:02.116Z,23.55
2019-02-27T20:51:02.753Z,22.30
2019-02-27T20:52:55.494Z,21.25
2019-02-27T20:54:49.713Z,20.55
2019-02-27T20:56:44.382Z,27.35
2019-02-27T20:58:38.640Z,15.35
2019-02-27T21:00:35.954Z,15.68
2019-02-27T21:02:29.077Z,18.52
2019-02-27T21:04:23.451Z,19.35
2019-02-27T21:06:18.221Z,14.55
2019-02-27T21:08:12.954Z,16.37
2019-02-27T21:10:20.148Z,21.87
2019-02-27T21:12:12.614Z,17.00
2019-02-27T21:14:07.304Z,22.82
2019-02-27T21:16:03.961Z,12.45
2019-02-27T21:17:39.977Z,17.17
2019-02-27T21:19:17.598Z,16.97
2019-02-27T21:20:54.386Z,16.30
2019-02-27T21:22:30.685Z,16.97
2019-02-27T21:24:07.084Z,16.60
2019-02-27T21:25:46.160Z,13.43
2019-02-27T21:27:21.404Z,12.68
2019-02-27T21:28:58.934Z,16.75
2019-02-27T21:30:36.775Z,12.82
2019-02-27T21:32:14.162Z,11.20
2019-02-27T21:33:50.051Z,13.90
2019-02-27T21:35:29.674Z,13.58
2019-02-27T21:37:07.223Z,22.10
2019-02-27T21:38:43.917Z,11.55
2019-02-27T21:40:20.396Z,9.33
2019-02-27T21:42:18.547Z,13.43
2019-02-27T21:44:08.666Z,8.48
2019-02-27T21:46:02.638Z,10.00
2019-02-27T21:47:56.388Z,9.18
2019-02-27T21:51:41.749Z,9.00
2019-02-27T21:53:34.614Z,17.23
2019-02-27T21:57:19.758Z,10.93
2019-02-27T22:01:04.654Z,11.83
2019-02-27T22:03:03.654Z,8.25
2019-02-27T22:04:53.246Z,13.80
2019-02-27T22:06:46.087Z,10.82
2019-02-27T22:08:39.548Z,8.20
2019-02-27T22:10:32.844Z,6.85
2019-02-27T22:14:17.968Z,12.58
2019-02-27T22:16:10.838Z,6.83
2019-02-27T22:18:03.542Z,7.58
2019-02-27T22:19:56.625Z,6.12
2019-02-27T22:21:49.544Z,7.53
2019-02-27T22:23:44.874Z,7.08
2019-02-27T22:25:36.852Z,9.00
2019-02-27T22:27:29.650Z,7.20
2019-02-27T22:31:14.529Z,7.62
2019-02-27T22:33:07.287Z,5.22
2019-02-27T22:35:02.797Z,5.17
2019-02-27T22:36:56.025Z,4.85
2019-02-27T22:38:48.729Z,5.60
2019-02-27T22:40:41.533Z,6.25
2019-02-27T22:42:34.529Z,7.28
2019-02-27T22:44:29.226Z,7.50
2019-02-27T22:46:21.236Z,4.97
2019-02-27T22:48:14.042Z,4.40
2019-02-27T22:50:11.029Z,5.10
2019-02-27T22:52:05.355Z,7.33
2019-02-27T22:53:59.432Z,6.25
2019-02-27T22:55:53.630Z,7.55
2019-02-27T22:57:46.441Z,4.90
2019-02-27T22:59:39.308Z,5.40
2019-02-27T23:01:49.359Z,5.58
2019-02-27T23:03:44.671Z,8.55
2019-02-27T23:05:38.196Z,4.90
2019-02-27T23:07:31.908Z,5.60
2019-02-27T23:09:25.889Z,5.28
2019-02-27T23:11:19.214Z,5.03
2019-02-27T23:13:12.699Z,6.92
2019-02-27T23:15:07.472Z,4.83
2019-02-27T23:17:00.609Z,4.70
2019-02-27T23:18:54.602Z,3.55
2019-02-27T23:20:47.450Z,3.90
2019-02-27T23:22:41.896Z,6.00
2019-02-27T23:24:34.534Z,4.45
2019-02-27T23:28:19.868Z,4.85
2019-02-27T23:30:15.813Z,6.25
2019-02-27T23:32:07.169Z,5.10
2019-02-27T23:33:59.948Z,4.15
2019-02-27T23:35:52.681Z,4.22
2019-02-27T23:37:45.196Z,3.87
2019-02-27T23:39:39.619Z,4.50
2019-02-27T23:41:32.460Z,7.87
2019-02-27T23:43:25.303Z,6.00
2019-02-27T23:45:17.859Z,6.53
2019-02-27T23:47:10.457Z,7.42
2019-02-27T23:49:03.248Z,3.75
2019-02-27T23:50:56.329Z,4.33
2019-02-27T23:52:49.283Z,4.80
2019-02-27T23:54:42.084Z,4.42
2019-02-27T23:56:34.749Z,3.52
2019-02-27T23:58:29.538Z,4.15
